Impacts METAR Board INFO
IDs:

KPDX - Portland Intl Arpt, OR, US

Updated at: 1810 UTC 18 Feb 2018
Potential Impact None Slight Moderate High
Time18/06Z 18/07Z 18/08Z 18/09Z 18/10Z 18/11Z 18/12Z 18/13Z 18/14Z 18/15Z 18/16Z 18/17Z 18/18Z
VIS10 10 10 10 10 10 10 10 10 10 10 10 10
CIG22 38 50 34 36 31 55 25 39 42 70 85 29
CoverOVCOVCBKNOVCBKNOVCOVCOVCOVCOVCOVCOVCOVC
FltCatMVFRVFRVFRVFRVFRVFRVFRMVFRVFRVFRVFRVFRMVFR
WX-------RA---RA---RA---RA -SN-RA---RA
WDir240280240260250300310240190200200200200
WSpd7 7 7 12 7 8 6 11 7 11 15 13 14
WGst-- -- -- -- -- -- -- -- -- -- -- -- 20
Raw hourly METARs
KPDX 180600Z 24007KT 10SM BKN022 OVC027 07/04 A2979 RMK AO2 RAE0556 P0000 T00670039
KPDX 180653Z 28007KT 10SM FEW030 OVC038 07/03 A2978 RMK AO2 RAE0556B29E42 SLP083 P0000 T00670033
KPDX 180753Z 24007KT 10SM FEW029 SCT040 BKN050 06/03 A2978 RMK AO2 RAB0654E17 SLP082 P0000 T00610033 401280061
KPDX 180853Z 26012KT 10SM -RA BKN034 OVC050 06/01 A2978 RMK AO2 RAB49 SLP082 P0000 60000 T00610011 55003
KPDX 180953Z 25007KT 10SM FEW016 SCT024 BKN036 04/02 A2977 RMK AO2 RAE04B24E43 SLP079 P0000 T00440017
KPDX 181053Z 30008KT 10SM -RA SCT024 BKN031 OVC060 05/01 A2976 RMK AO2 RAB46 SLP077 P0000 T00500011
KPDX 181153Z 31006KT 10SM FEW024 SCT042 OVC055 03/01 A2976 RMK AO2 RAE07B31E41 SLP076 P0000 60000 70008 T00330011 10067 20033 56006
KPDX 181253Z 24011KT 10SM -RA SCT016 BKN025 OVC032 03/01 A2977 RMK AO2 SLP080 RAB25 P0001 T00280006
KPDX 181353Z 19007KT 10SM FEW033 BKN039 OVC055 02/01 A2975 RMK AO2 RAE36 SLP074 P0000 T00220011
KPDX 181453Z 20011KT 10SM -RASN BKN042 BKN075 OVC090 02/01 A2974 RMK AO2 RAB06SNB48 SLP069 P0000 60001 T00220006 58008
KPDX 181553Z 20015KT 10SM -RA FEW025 SCT055 OVC070 02/01 A2974 RMK AO2 RAE31B49SNE05 SLP071 P0000 T00220006
KPDX 181653Z 20013KT 10SM SCT016 BKN085 OVC100 03/01 A2974 RMK AO2 RAE24 SLP071 P0001 T00280011
KPDX 181753Z 20014G20KT 10SM -RA SCT015 BKN029 OVC060 03/01 A2974 RMK AO2 RAB06E20B36 SLP069 P0000 60002 T00280011 10039 20017 50000